Time;durP1;ratioP1;P1;durP2;ratioP2;P2;SDS_P1;SDS_P2;PMS_P1;PMS_P2;Temp;Humidity;BMP_temperature;BMP_pressure;BME280_temperature;BME280_humidity;BME280_pressure;Samples;Min_cycle;Max_cycle;Signal;HPM_P1;HPM_P2
2022/05/19 00:01:30;;;;;;;22.77;19.92;;;14.30;99.90;;;;;;4989137;28;20053;-78
2022/05/19 00:03:56;;;;;;;28.27;20.05;;;14.30;99.90;;;;;;5005226;28;20038;-78
2022/05/19 00:06:22;;;;;;;22.08;19.75;;;14.30;99.90;;;;;;5006089;28;20586;-77
2022/05/19 00:08:47;;;;;;;24.15;20.70;;;14.30;99.90;;;;;;5006200;28;20417;-77
2022/05/19 00:11:16;;;;;;;24.17;20.10;;;14.30;99.90;;;;;;5006910;28;20071;-77
2022/05/19 00:13:43;;;;;;;25.05;20.15;;;14.20;99.90;;;;;;5006624;28;20042;-76
2022/05/19 00:16:09;;;;;;;23.42;20.95;;;14.30;99.90;;;;;;5005944;28;20057;-76
2022/05/19 00:18:36;;;;;;;23.35;19.73;;;14.20;99.90;;;;;;5006259;28;20197;-77
2022/05/19 00:21:02;;;;;;;25.15;21.48;;;14.20;99.90;;;;;;5005079;28;20053;-77
2022/05/19 00:23:28;;;;;;;23.45;19.50;;;14.10;99.90;;;;;;5004505;28;20057;-76
2022/05/19 00:25:54;;;;;;;22.40;19.80;;;14.20;99.90;;;;;;5005820;28;20038;-77
2022/05/19 00:28:19;;;;;;;24.98;17.80;;;14.20;99.90;;;;;;5006088;28;20392;-76
2022/05/19 00:30:45;;;;;;;23.38;19.92;;;14.20;99.90;;;;;;5006270;28;20053;-76
2022/05/19 00:33:12;;;;;;;24.90;17.85;;;14.20;99.90;;;;;;5005674;28;20044;-78
2022/05/19 00:35:39;;;;;;;23.23;20.65;;;14.20;99.90;;;;;;5004529;28;20050;-77
2022/05/19 00:38:05;;;;;;;24.45;18.80;;;14.20;99.90;;;;;;5005866;28;20050;-77
2022/05/19 00:40:31;;;;;;;21.52;18.63;;;14.30;99.90;;;;;;4988013;28;20056;-77
2022/05/19 00:42:57;;;;;;;23.23;19.95;;;14.10;99.90;;;;;;5005617;28;20050;-78
2022/05/19 00:45:26;;;;;;;22.60;20.40;;;14.20;99.90;;;;;;5005704;28;20088;-78
2022/05/19 00:47:54;;;;;;;23.53;21.23;;;14.10;99.90;;;;;;5005878;28;20495;-78
2022/05/19 00:50:29;;;;;;;25.92;22.02;;;14.10;99.90;;;;;;5004387;28;20042;-78
2022/05/19 00:53:04;;;;;;;22.52;20.27;;;14.10;99.90;;;;;;5005612;28;20472;-78
2022/05/19 00:55:38;;;;;;;27.00;20.92;;;14.10;99.90;;;;;;5005691;28;20050;-77
2022/05/19 00:58:26;;;;;;;25.00;21.48;;;14.20;99.90;;;;;;5005779;28;20130;-76
2022/05/19 01:00:54;;;;;;;26.83;21.65;;;14.30;99.90;;;;;;5005375;28;20108;-76
2022/05/19 01:03:21;;;;;;;24.30;21.35;;;14.10;99.90;;;;;;5005241;28;20042;-75
2022/05/19 01:05:52;;;;;;;25.60;20.27;;;14.20;99.90;;;;;;5004832;28;20041;-75
2022/05/19 01:08:31;;;;;;;30.23;21.80;;;14.30;99.90;;;;;;5005675;28;20080;-75
2022/05/19 01:10:58;;;;;;;25.90;22.27;;;14.30;99.90;;;;;;5005705;28;20089;-78
2022/05/19 01:13:30;;;;;;;26.85;22.58;;;14.30;99.90;;;;;;5003993;28;20129;-76
2022/05/19 01:15:57;;;;;;;26.33;22.25;;;14.40;99.90;;;;;;5005196;28;20088;-75
2022/05/19 01:18:25;;;;;;;29.88;23.52;;;14.30;99.90;;;;;;5005258;28;20049;-77
2022/05/19 01:20:51;;;;;;;25.40;22.63;;;14.40;99.90;;;;;;5004366;28;20042;-77
2022/05/19 01:23:41;;;;;;;30.77;25.05;;;14.40;99.90;;;;;;5004142;28;20046;-76
2022/05/19 01:26:26;;;;;;;;;;;14.40;99.90;;;;;;5005659;28;20045;-76
2022/05/19 01:28:52;;;;;;;25.50;22.77;;;14.40;99.90;;;;;;5003986;28;19975;-78
2022/05/19 01:31:46;;;;;;;31.90;25.02;;;14.40;99.90;;;;;;5005390;28;20077;-78
2022/05/19 01:34:12;;;;;;;28.75;24.33;;;14.50;99.90;;;;;;5004611;28;20052;-78
2022/05/19 01:36:39;;;;;;;26.52;23.70;;;14.40;99.90;;;;;;5005344;28;20120;-76
2022/05/19 01:39:08;;;;;;;33.75;22.73;;;14.50;99.90;;;;;;5005481;28;20482;-77
2022/05/19 01:41:48;;;;;;;28.73;23.77;;;14.50;99.90;;;;;;5005567;28;20546;-78
2022/05/19 01:44:36;;;;;;;29.38;25.60;;;14.50;99.90;;;;;;5005601;28;20121;-77
2022/05/19 01:47:12;;;;;;;31.10;24.25;;;14.50;99.90;;;;;;5005899;28;20057;-77
2022/05/19 01:49:59;;;;;;;30.77;23.98;;;14.50;99.90;;;;;;5007908;28;20034;-78
2022/05/19 01:52:40;;;;;;;29.02;24.30;;;14.50;99.90;;;;;;5008244;28;20523;-78
2022/05/19 01:55:13;;;;;;;30.20;24.92;;;14.40;99.90;;;;;;5009508;22;20068;-78
2022/05/19 01:57:58;;;;;;;34.92;27.88;;;14.50;99.90;;;;;;4987665;28;20060;-78
2022/05/19 02:00:27;;;;;;;33.80;27.80;;;14.50;99.90;;;;;;4988833;28;20046;-77
2022/05/19 02:03:20;;;;;;;35.13;27.67;;;14.60;99.90;;;;;;4989057;28;20089;-78
2022/05/19 02:05:53;;;;;;;33.75;26.20;;;14.60;99.90;;;;;;4971214;28;20444;-78
2022/05/19 02:08:26;;;;;;;34.60;29.63;;;14.50;99.90;;;;;;4989098;28;20038;-77
2022/05/19 02:10:55;;;;;;;33.45;27.85;;;14.50;99.90;;;;;;4989004;28;20151;-76
2022/05/19 02:13:22;;;;;;;33.90;30.17;;;14.50;99.90;;;;;;4988396;28;20057;-78
2022/05/19 02:15:51;;;;;;;39.83;31.65;;;14.60;99.90;;;;;;4987682;28;20062;-77
2022/05/19 02:18:20;;;;;;;36.80;32.00;;;14.60;99.90;;;;;;4988669;28;20088;-77
2022/05/19 02:20:48;;;;;;;36.13;30.98;;;14.80;99.90;;;;;;4988322;28;20046;-76
2022/05/19 02:23:15;;;;;;;41.35;31.65;;;14.80;99.90;;;;;;4988028;28;20052;-77
2022/05/19 02:25:49;;;;;;;39.40;32.95;;;14.70;99.90;;;;;;4988811;28;20085;-78
2022/05/19 02:28:45;;;;;;;40.90;32.60;;;14.90;99.90;;;;;;4989022;28;20040;-76
2022/05/19 02:31:11;;;;;;;40.33;33.83;;;14.90;99.90;;;;;;4988686;28;20049;-78
2022/05/19 02:33:37;;;;;;;40.60;33.33;;;14.90;99.90;;;;;;4986899;28;20050;-77
2022/05/19 02:36:04;;;;;;;48.38;34.42;;;14.90;99.90;;;;;;4988436;28;20515;-78
2022/05/19 02:38:30;;;;;;;39.45;32.75;;;14.90;99.90;;;;;;4988260;28;20051;-77
2022/05/19 02:40:56;;;;;;;38.72;33.45;;;15.10;99.90;;;;;;4988046;28;20046;-76
2022/05/19 02:43:22;;;;;;;41.10;33.13;;;15.00;99.90;;;;;;4987806;28;20059;-77
2022/05/19 02:45:48;;;;;;;43.90;35.75;;;15.00;99.90;;;;;;4988251;28;20129;-78
2022/05/19 02:48:15;;;;;;;43.58;34.63;;;15.10;99.90;;;;;;4987160;28;20444;-76
2022/05/19 02:50:42;;;;;;;41.90;35.97;;;15.10;99.90;;;;;;4987318;28;20436;-78
2022/05/19 02:53:08;;;;;;;46.35;35.78;;;15.10;99.90;;;;;;4987908;28;20100;-77
2022/05/19 02:55:34;;;;;;;44.38;35.50;;;15.30;99.90;;;;;;4988003;28;20085;-77
2022/05/19 02:58:00;;;;;;;40.75;33.30;;;15.20;99.90;;;;;;4986259;28;20086;-78
2022/05/19 03:00:26;;;;;;;49.38;34.72;;;15.30;99.90;;;;;;4988054;28;20093;-77
2022/05/19 03:02:54;;;;;;;42.28;34.15;;;15.20;99.90;;;;;;4987961;28;20471;-78
2022/05/19 03:05:22;;;;;;;41.50;34.10;;;15.30;99.90;;;;;;4985752;28;20050;-76
2022/05/19 03:07:48;;;;;;;43.53;33.88;;;15.30;99.90;;;;;;4987600;28;20045;-78
2022/05/19 03:10:15;;;;;;;38.13;33.10;;;15.40;99.90;;;;;;4988023;28;20496;-78
2022/05/19 03:12:41;;;;;;;41.30;33.70;;;15.30;99.90;;;;;;4987355;28;20516;-78
2022/05/19 03:15:08;;;;;;;39.83;34.38;;;15.40;99.90;;;;;;4986286;28;20105;-77
2022/05/19 03:17:33;;;;;;;46.83;33.65;;;15.30;99.90;;;;;;4987003;28;20082;-78
2022/05/19 03:19:59;;;;;;;34.75;31.05;;;15.30;99.90;;;;;;4986433;28;20523;-78
2022/05/19 03:22:25;;;;;;;39.47;31.38;;;15.30;99.90;;;;;;4987241;28;20274;-78
2022/05/19 03:24:51;;;;;;;34.53;30.75;;;15.30;99.90;;;;;;4987330;28;20046;-78
2022/05/19 03:27:20;;;;;;;44.35;31.13;;;15.50;99.90;;;;;;4987297;28;20042;-77
2022/05/19 03:29:48;;;;;;;35.35;31.27;;;15.40;99.90;;;;;;4987951;28;20455;-78
2022/05/19 03:32:14;;;;;;;36.10;29.20;;;15.40;99.90;;;;;;4988101;28;20038;-78
2022/05/19 03:34:40;;;;;;;39.45;32.17;;;15.50;99.90;;;;;;4986828;28;20449;-75
2022/05/19 03:37:06;;;;;;;40.80;31.98;;;15.40;99.90;;;;;;4987827;28;20526;-75
2022/05/19 03:39:33;;;;;;;40.60;33.63;;;15.50;99.90;;;;;;4987641;28;20055;-77
2022/05/19 03:41:59;;;;;;;40.70;32.13;;;15.50;99.90;;;;;;4987529;28;20057;-77
2022/05/19 03:44:24;;;;;;;44.50;34.55;;;15.50;99.90;;;;;;4987268;28;20050;-77
2022/05/19 03:46:50;;;;;;;46.80;35.45;;;15.60;99.90;;;;;;4986398;28;20048;-77
2022/05/19 03:49:16;;;;;;;38.33;34.15;;;15.60;99.90;;;;;;4986878;28;20034;-78
2022/05/19 03:51:42;;;;;;;42.30;34.70;;;15.60;99.90;;;;;;4987322;28;20067;-77
2022/05/19 03:54:08;;;;;;;39.60;32.08;;;15.70;99.90;;;;;;4987152;28;20030;-76
2022/05/19 03:56:34;;;;;;;42.88;33.65;;;15.70;99.90;;;;;;4987627;28;20064;-78
2022/05/19 03:59:00;;;;;;;43.28;34.45;;;15.60;99.90;;;;;;4987033;28;20046;-77
2022/05/19 04:01:26;;;;;;;44.25;35.22;;;15.70;99.90;;;;;;4986688;28;20043;-78
2022/05/19 04:03:53;;;;;;;42.25;36.10;;;15.70;99.90;;;;;;4985780;28;20501;-78
2022/05/19 04:06:19;;;;;;;45.60;35.28;;;15.70;99.90;;;;;;4985347;28;20046;-78
2022/05/19 04:08:45;;;;;;;39.67;35.35;;;15.80;99.90;;;;;;4986843;28;20049;-75
2022/05/19 04:11:11;;;;;;;47.47;34.97;;;15.80;99.90;;;;;;4986103;28;20097;-76
2022/05/19 04:13:37;;;;;;;58.67;40.28;;;15.80;99.90;;;;;;4985451;28;20050;-77
2022/05/19 04:16:02;;;;;;;41.55;33.60;;;15.80;99.90;;;;;;4986349;28;20042;-76
2022/05/19 04:18:28;;;;;;;44.88;36.78;;;15.80;99.90;;;;;;4985618;28;20430;-77
2022/05/19 04:20:55;;;;;;;40.83;35.92;;;15.90;99.90;;;;;;4986216;28;20053;-76
2022/05/19 04:23:20;;;;;;;40.60;36.13;;;15.80;99.90;;;;;;4984849;28;20050;-79
2022/05/19 04:25:46;;;;;;;47.28;35.97;;;15.90;99.90;;;;;;4986778;28;20042;-77
2022/05/19 04:28:12;;;;;;;54.22;37.65;;;16.00;99.90;;;;;;4986758;28;20046;-76
2022/05/19 04:30:38;;;;;;;41.25;36.10;;;16.00;99.90;;;;;;4986574;28;20401;-77
2022/05/19 04:33:04;;;;;;;44.75;35.78;;;16.10;99.90;;;;;;4985646;28;20050;-76
2022/05/19 04:35:30;;;;;;;38.90;34.03;;;16.20;99.90;;;;;;4985962;28;20520;-77
2022/05/19 04:37:57;;;;;;;45.22;36.92;;;16.30;99.90;;;;;;4986397;28;20396;-78
2022/05/19 04:40:23;;;;;;;45.03;35.80;;;16.40;99.90;;;;;;4985905;28;20117;-76
2022/05/19 04:42:49;;;;;;;46.65;37.67;;;16.40;99.90;;;;;;4986247;28;20042;-78
2022/05/19 04:45:17;;;;;;;47.78;39.15;;;16.50;99.90;;;;;;4985267;28;20045;-77
2022/05/19 04:47:43;;;;;;;46.10;38.05;;;16.60;99.90;;;;;;4985317;28;20039;-77
2022/05/19 04:50:10;;;;;;;56.38;38.53;;;16.60;99.90;;;;;;4983958;28;20058;-76
2022/05/19 04:52:36;;;;;;;47.35;38.65;;;16.70;99.90;;;;;;4986104;28;20042;-77
2022/05/19 04:55:04;;;;;;;49.65;38.80;;;16.80;99.90;;;;;;4986041;28;20050;-76
2022/05/19 04:57:31;;;;;;;45.72;40.00;;;16.80;99.90;;;;;;4984877;28;20060;-77
2022/05/19 04:59:56;;;;;;;45.63;40.67;;;16.80;99.90;;;;;;4984911;28;20390;-78
2022/05/19 05:02:22;;;;;;;46.10;41.25;;;16.90;99.90;;;;;;4985649;28;20154;-76
2022/05/19 05:04:48;;;;;;;49.60;41.22;;;16.90;99.90;;;;;;4984862;28;20100;-76
2022/05/19 05:07:13;;;;;;;53.05;39.88;;;16.90;99.90;;;;;;4986026;28;20100;-76
2022/05/19 05:09:39;;;;;;;54.03;39.80;;;17.00;99.90;;;;;;4986037;28;20050;-76
2022/05/19 05:12:06;;;;;;;53.05;39.72;;;16.90;99.90;;;;;;4984719;28;20500;-76
2022/05/19 05:14:31;;;;;;;44.75;37.42;;;16.90;99.90;;;;;;4985765;28;20046;-76
2022/05/19 05:16:57;;;;;;;45.70;37.20;;;16.90;99.90;;;;;;4984562;28;20053;-77
2022/05/19 05:19:24;;;;;;;52.30;38.67;;;17.00;99.90;;;;;;4984737;28;20046;-76
2022/05/19 05:21:54;;;;;;;42.83;37.75;;;16.90;99.90;;;;;;4987706;28;20358;-76
2022/05/19 05:24:20;;;;;;;49.30;38.35;;;17.00;99.90;;;;;;4989360;28;20062;-75
2022/05/19 05:26:45;;;;;;;48.40;38.60;;;17.00;99.90;;;;;;4990174;28;20053;-76
2022/05/19 05:29:11;;;;;;;48.95;38.00;;;17.00;99.90;;;;;;4971808;28;20485;-76
2022/05/19 05:31:37;;;;;;;47.78;38.13;;;17.00;99.90;;;;;;4989366;28;20057;-78
2022/05/19 05:34:02;;;;;;;43.17;35.80;;;17.10;99.90;;;;;;4988082;28;20432;-77
2022/05/19 05:36:28;;;;;;;43.15;36.13;;;17.00;99.90;;;;;;4989245;28;20050;-78
2022/05/19 05:38:54;;;;;;;44.05;36.53;;;17.00;99.90;;;;;;4988271;28;20373;-78
2022/05/19 05:41:19;;;;;;;38.30;31.55;;;17.10;99.90;;;;;;4971994;28;20054;-76
2022/05/19 05:43:45;;;;;;;41.95;34.90;;;17.20;99.90;;;;;;4989555;28;20058;-79
2022/05/19 05:46:15;;;;;;;39.63;33.10;;;17.30;99.90;;;;;;4989058;28;20385;-77
2022/05/19 05:48:43;;;;;;;40.95;31.10;;;17.30;99.90;;;;;;4987006;28;20042;-77
2022/05/19 05:51:10;;;;;;;36.60;29.52;;;17.40;99.90;;;;;;4989170;28;20412;-76
2022/05/19 05:53:38;;;;;;;34.47;29.70;;;17.40;99.90;;;;;;4989136;28;20058;-77
2022/05/19 05:56:06;;;;;;;36.55;30.02;;;17.40;99.90;;;;;;4988617;28;20480;-77
2022/05/19 05:58:32;;;;;;;38.85;30.95;;;17.40;99.90;;;;;;4989333;28;20112;-75
2022/05/19 06:00:58;;;;;;;36.15;29.77;;;17.30;99.90;;;;;;4988866;28;20042;-77
2022/05/19 06:03:24;;;;;;;35.42;29.45;;;17.40;99.90;;;;;;4987666;28;20039;-76
2022/05/19 06:05:50;;;;;;;35.33;29.48;;;17.50;99.90;;;;;;4971178;28;20404;-76
2022/05/19 06:08:16;;;;;;;33.88;28.45;;;17.50;99.90;;;;;;4987986;28;20372;-76
2022/05/19 06:10:42;;;;;;;37.10;29.58;;;17.40;99.90;;;;;;4971379;28;20509;-77
2022/05/19 06:13:08;;;;;;;32.90;27.35;;;17.60;99.90;;;;;;4971397;28;20442;-75
2022/05/19 06:15:34;;;;;;;37.38;28.23;;;17.50;99.90;;;;;;4988719;28;20049;-77
2022/05/19 06:18:00;;;;;;;36.03;27.00;;;17.50;99.90;;;;;;4987596;28;20038;-77
2022/05/19 06:20:26;;;;;;;41.42;27.70;;;17.50;99.90;;;;;;4988343;28;20125;-77
2022/05/19 06:22:52;;;;;;;32.00;27.00;;;17.50;99.90;;;;;;4988256;28;20053;-76
2022/05/19 06:25:20;;;;;;;32.90;26.80;;;17.60;99.90;;;;;;4988215;28;20047;-77
2022/05/19 06:27:49;;;;;;;36.05;27.92;;;17.40;99.90;;;;;;4987572;28;20050;-78
2022/05/19 06:30:15;;;;;;;30.77;27.40;;;17.40;99.90;;;;;;4988608;28;20047;-77
2022/05/19 06:32:42;;;;;;;32.80;26.70;;;17.50;99.90;;;;;;4986274;28;20109;-77
2022/05/19 06:35:10;;;;;;;34.88;27.35;;;17.30;99.90;;;;;;4987725;28;20043;-75
2022/05/19 06:37:37;;;;;;;36.30;28.00;;;17.30;99.90;;;;;;4971304;28;20046;-76
2022/05/19 06:40:03;;;;;;;38.88;28.63;;;17.40;99.90;;;;;;4986837;28;20086;-74
2022/05/19 06:42:28;;;;;;;35.53;31.08;;;17.50;99.90;;;;;;4986827;28;20513;-76
2022/05/19 06:44:56;;;;;;;34.65;30.88;;;17.40;99.90;;;;;;4986617;28;20340;-75
2022/05/19 06:47:22;;;;;;;34.33;30.63;;;17.60;99.90;;;;;;4986765;28;20081;-76
2022/05/19 06:49:51;;;;;;;37.55;30.67;;;17.40;99.90;;;;;;4987357;28;20047;-76
2022/05/19 06:52:22;;;;;;;33.78;30.20;;;17.50;99.90;;;;;;4988218;28;20058;-76
2022/05/19 06:54:51;;;;;;;41.50;35.42;;;17.70;99.90;;;;;;4987825;28;20133;-76
2022/05/19 06:57:18;;;;;;;39.58;32.65;;;17.80;99.90;;;;;;4987753;28;20042;-75
2022/05/19 06:59:44;;;;;;;35.42;31.60;;;17.80;99.90;;;;;;4988039;28;20050;-76
2022/05/19 07:02:10;;;;;;;37.67;33.75;;;17.80;99.90;;;;;;4986686;28;20061;-76
2022/05/19 07:04:37;;;;;;;37.97;31.58;;;17.70;99.90;;;;;;4986859;28;20034;-76
2022/05/19 07:07:07;;;;;;;32.85;29.27;;;17.80;99.90;;;;;;4986109;28;20042;-75
2022/05/19 07:09:37;;;;;;;38.13;31.27;;;17.70;99.90;;;;;;4986552;28;20512;-77
2022/05/19 07:12:04;;;;;;;;;;;17.90;99.90;;;;;;4987905;28;20046;-76
2022/05/19 07:14:30;;;;;;;36.13;29.73;;;17.80;99.90;;;;;;4987433;28;20396;-77
2022/05/19 07:16:56;;;;;;;33.90;28.65;;;18.00;99.90;;;;;;4987606;28;20034;-77
2022/05/19 07:22:13;;;;;;;36.90;30.58;;;17.90;99.90;;;;;;4987352;28;20144;-76
2022/05/19 07:24:39;;;;;;;35.35;30.05;;;17.80;99.90;;;;;;4986004;28;20050;-76
2022/05/19 07:27:05;;;;;;;31.98;28.77;;;18.00;99.90;;;;;;4987210;28;20047;-77
2022/05/19 07:29:31;;;;;;;33.33;29.88;;;17.90;99.90;;;;;;4987572;28;20390;-78
2022/05/19 07:32:00;;;;;;;31.58;28.17;;;17.80;99.90;;;;;;4987147;28;20082;-77
2022/05/19 07:34:28;;;;;;;32.97;26.92;;;18.00;99.90;;;;;;4986327;28;20046;-77
2022/05/19 07:36:54;;;;;;;29.73;26.52;;;17.90;99.90;;;;;;4987234;28;20504;-77
2022/05/19 07:39:20;;;;;;;32.20;24.92;;;18.10;99.90;;;;;;4986825;28;20466;-76
2022/05/19 07:41:46;;;;;;;34.03;27.23;;;18.00;99.90;;;;;;4987489;28;20073;-77
2022/05/19 07:44:12;;;;;;;31.70;25.38;;;18.10;99.90;;;;;;4987252;28;20382;-76
2022/05/19 07:46:38;;;;;;;38.85;27.45;;;18.10;99.90;;;;;;4986085;28;20046;-76
2022/05/19 07:49:04;;;;;;;37.15;29.17;;;18.10;99.90;;;;;;4986090;28;20049;-75
2022/05/19 07:51:36;;;;;;;31.42;26.02;;;18.00;99.90;;;;;;4987170;28;20047;-76
2022/05/19 07:54:04;;;;;;;31.40;24.88;;;18.00;99.90;;;;;;4969378;28;20046;-76
2022/05/19 07:56:30;;;;;;;29.13;24.58;;;17.90;99.90;;;;;;4985270;28;20054;-76
2022/05/19 07:58:55;;;;;;;28.17;24.13;;;18.00;99.90;;;;;;4986858;28;20053;-76
2022/05/19 08:01:21;;;;;;;27.33;24.20;;;18.20;99.90;;;;;;4986423;28;20125;-76
2022/05/19 08:03:47;;;;;;;29.52;25.10;;;18.10;99.90;;;;;;4985863;28;20103;-77
2022/05/19 08:06:13;;;;;;;33.25;26.38;;;18.00;99.90;;;;;;4969685;28;20061;-78
2022/05/19 08:08:39;;;;;;;32.75;26.25;;;18.00;99.90;;;;;;4985517;28;20054;-74
2022/05/19 08:11:06;;;;;;;31.08;26.55;;;18.30;99.90;;;;;;4987001;28;20061;-77
2022/05/19 08:16:16;;;;;;;30.75;26.23;;;18.20;99.90;;;;;;4986702;28;20042;-77
2022/05/19 08:18:42;;;;;;;30.52;23.20;;;18.20;99.90;;;;;;4985952;28;20054;-76
2022/05/19 08:21:13;;;;;;;27.58;24.38;;;18.30;99.90;;;;;;4986434;28;20057;-76
2022/05/19 08:23:44;;;;;;;26.77;23.85;;;18.10;99.90;;;;;;4985039;28;20038;-75
2022/05/19 08:26:11;;;;;;;27.67;24.20;;;18.30;99.90;;;;;;4984659;28;20038;-76
2022/05/19 08:28:38;;;;;;;27.55;24.73;;;18.50;99.90;;;;;;4986549;28;20042;-77
2022/05/19 08:31:09;;;;;;;29.00;25.13;;;18.40;99.90;;;;;;4985142;28;20049;-76
2022/05/19 08:33:35;;;;;;;;;;;18.50;99.90;;;;;;4985670;28;20965;-77
2022/05/19 08:36:02;;;;;;;28.92;25.95;;;18.70;99.90;;;;;;4986397;28;19918;-76
2022/05/19 08:38:28;;;;;;;30.52;24.98;;;18.90;99.90;;;;;;4984970;28;20054;-77
2022/05/19 08:41:25;;;;;;;29.48;24.70;;;18.70;99.90;;;;;;4986155;28;20054;-76
2022/05/19 08:44:06;;;;;;;27.88;24.13;;;19.00;99.90;;;;;;4985939;28;20046;-77
2022/05/19 08:46:46;;;;;;;25.40;22.70;;;19.00;99.90;;;;;;4984851;28;20133;-76
2022/05/19 08:49:19;;;;;;;27.50;23.55;;;19.10;99.90;;;;;;4984276;28;20050;-78
2022/05/19 08:51:56;;;;;;;29.00;22.58;;;19.20;99.90;;;;;;4986527;28;20043;-77
2022/05/19 08:54:23;;;;;;;27.85;22.15;;;19.40;99.90;;;;;;4985884;28;20050;-76
2022/05/19 08:57:11;;;;;;;29.02;22.35;;;19.40;99.90;;;;;;4987846;28;20063;-76
2022/05/19 08:59:39;;;;;;;25.52;23.08;;;19.40;99.90;;;;;;4989990;28;20287;-77
2022/05/19 09:02:12;;;;;;;24.80;20.92;;;19.40;99.90;;;;;;4990517;28;20092;-77
2022/05/19 09:04:57;;;;;;;26.02;21.45;;;19.60;99.90;;;;;;4989013;28;20454;-77
2022/05/19 09:10:40;;;;;;;23.83;21.23;;;19.60;99.90;;;;;;4988813;28;20133;-77
2022/05/19 09:13:21;;;;;;;22.42;20.05;;;19.80;99.90;;;;;;4989466;28;20050;-76
2022/05/19 09:15:48;;;;;;;23.40;20.55;;;19.80;99.90;;;;;;4988462;28;20154;-75
2022/05/19 09:18:16;;;;;;;24.65;19.70;;;20.00;99.90;;;;;;4988343;28;20038;-77
2022/05/19 09:20:51;;;;;;;21.88;19.15;;;19.90;99.90;;;;;;4989817;28;20125;-76
2022/05/19 09:23:18;;;;;;;24.70;21.52;;;20.10;99.90;;;;;;4989561;28;20419;-75
2022/05/19 09:25:52;;;;;;;22.25;19.55;;;20.20;99.90;;;;;;4989935;28;20419;-77
2022/05/19 09:28:19;;;;;;;20.17;18.15;;;20.20;99.90;;;;;;4988014;28;20042;-76
2022/05/19 09:30:51;;;;;;;26.88;21.15;;;20.20;99.90;;;;;;4989795;28;20050;-77
2022/05/19 09:33:32;;;;;;;21.45;19.30;;;20.30;99.90;;;;;;4988294;28;20046;-76
2022/05/19 09:36:00;;;;;;;22.80;20.30;;;20.30;99.90;;;;;;4987974;28;20050;-77
2022/05/19 09:38:34;;;;;;;26.48;21.65;;;20.20;99.90;;;;;;4989110;28;20478;-76
2022/05/19 09:41:20;;;;;;;20.85;18.63;;;20.00;99.90;;;;;;4989102;28;20544;-76
2022/05/19 09:43:52;;;;;;;21.17;18.95;;;19.90;99.90;;;;;;4989907;28;20042;-76
2022/05/19 09:46:18;;;;;;;26.23;20.85;;;19.90;99.90;;;;;;4988613;28;20117;-76
2022/05/19 09:49:02;;;;;;;22.15;19.52;;;19.90;99.90;;;;;;4987295;28;20549;-77
2022/05/19 09:51:39;;;;;;;25.42;19.75;;;19.80;99.90;;;;;;4987827;28;20054;-77
2022/05/19 09:54:05;;;;;;;23.23;20.50;;;19.80;99.90;;;;;;4988731;28;20038;-76
2022/05/19 09:56:43;;;;;;;22.13;19.77;;;20.00;99.90;;;;;;4988847;28;20497;-77
2022/05/19 09:59:19;;;;;;;21.25;19.10;;;20.10;99.90;;;;;;4989006;28;20418;-77
2022/05/19 10:01:47;;;;;;;22.33;18.40;;;20.50;99.90;;;;;;4988904;28;20579;-77
2022/05/19 10:04:39;;;;;;;20.85;18.35;;;20.90;99.90;;;;;;4986891;28;20523;-77
2022/05/19 10:07:22;;;;;;;20.88;16.55;;;21.10;99.90;;;;;;4987990;28;20043;-77
2022/05/19 10:09:48;;;;;;;17.25;15.57;;;21.50;99.90;;;;;;4988306;28;20046;-76
2022/05/19 10:12:24;;;;;;;20.10;15.95;;;21.80;99.90;;;;;;4971267;28;20050;-77
2022/05/19 10:15:01;;;;;;;19.30;17.30;;;21.80;99.90;;;;;;4988432;28;20046;-77
2022/05/19 10:18:06;;;;;;;18.20;16.08;;;21.20;99.90;;;;;;4987268;28;20042;-78
2022/05/19 10:20:42;;;;;;;16.45;14.85;;;21.00;99.90;;;;;;4977314;28;20059;-78
2022/05/19 10:23:34;;;;;;;18.48;15.43;;;21.10;99.90;;;;;;4988363;28;20038;-77
2022/05/19 10:26:26;;;;;;;18.52;15.10;;;21.10;99.90;;;;;;4984032;28;20062;-78
2022/05/19 10:32:00;;;;;;;15.57;12.50;;;21.30;99.90;;;;;;4988226;28;20054;-77
2022/05/19 10:34:29;;;;;;;17.35;13.50;;;21.20;99.90;;;;;;4986959;28;20049;-77
2022/05/19 10:37:13;;;;;;;18.60;14.82;;;21.30;99.90;;;;;;4988510;28;20499;-78
2022/05/19 10:40:15;;;;;;;15.85;14.35;;;21.80;99.90;;;;;;4988138;28;20057;-76
2022/05/19 10:43:18;;;;;;;21.20;14.10;;;22.50;99.90;;;;;;4987867;28;20043;-77
2022/05/19 10:45:48;;;;;;;15.25;13.65;;;22.70;99.90;;;;;;4970981;28;20046;-77
2022/05/19 10:48:59;;;;;;;9.68;8.77;;;22.80;99.90;;;;;;4987427;28;20117;-79
2022/05/19 10:51:44;;;;;;;14.82;9.85;;;22.70;99.90;;;;;;4987768;28;20042;-77
2022/05/19 10:54:30;;;;;;;8.73;7.65;;;23.20;99.90;;;;;;4987624;28;20520;-77
2022/05/19 10:57:10;;;;;;;12.05;8.88;;;23.30;99.90;;;;;;4986299;28;20054;-77
2022/05/19 10:59:39;;;;;;;9.93;7.50;;;23.40;99.90;;;;;;4988153;28;20625;-77
2022/05/19 11:02:22;;;;;;;8.07;7.18;;;23.50;99.90;;;;;;4985681;28;20128;-77
2022/05/19 11:05:13;;;;;;;9.27;7.57;;;23.60;99.90;;;;;;4987471;28;20480;-77
2022/05/19 11:08:16;;;;;;;9.73;6.28;;;23.60;99.90;;;;;;4987295;28;20073;-76
2022/05/19 11:11:21;;;;;;;8.65;4.80;;;23.60;99.90;;;;;;4986395;28;20046;-76
2022/05/19 11:13:52;;;;;;;6.97;6.15;;;23.70;99.90;;;;;;4986710;28;20132;-76
2022/05/19 11:16:53;;;;;;;8.30;5.13;;;23.60;99.90;;;;;;4987669;28;20045;-77
2022/05/19 11:19:29;;;;;;;8.20;4.88;;;23.90;99.90;;;;;;4986047;28;20432;-75
2022/05/19 11:22:11;;;;;;;11.55;5.63;;;23.90;99.90;;;;;;4987405;28;20042;-77
2022/05/19 11:27:58;;;;;;;8.02;5.55;;;24.40;99.90;;;;;;4986056;28;20137;-77
2022/05/19 11:30:36;;;;;;;10.55;5.90;;;24.20;99.90;;;;;;4986900;28;20047;-77
2022/05/19 11:33:07;;;;;;;11.95;6.20;;;24.20;99.90;;;;;;4986387;28;20042;-77
2022/05/19 11:35:43;;;;;;;6.15;5.55;;;24.10;99.90;;;;;;4987371;28;20042;-77
2022/05/19 11:38:23;;;;;;;7.50;5.40;;;24.00;99.90;;;;;;4985560;28;20046;-77
2022/05/19 11:40:48;;;;;;;5.47;4.22;;;24.00;99.90;;;;;;4986771;28;20547;-76
2022/05/19 11:43:31;;;;;;;6.95;5.10;;;23.70;99.90;;;;;;4987413;28;20077;-76
2022/05/19 11:46:04;;;;;;;9.13;4.90;;;23.40;99.90;;;;;;4986999;28;20043;-77
2022/05/19 11:57:45;;;;;;;5.22;4.30;;;23.00;99.90;;;;;;4986477;28;20139;-76
2022/05/19 12:00:11;;;;;;;8.65;5.88;;;22.90;99.90;;;;;;4986453;28;20061;-76
2022/05/19 12:02:48;;;;;;;6.43;5.03;;;22.80;99.90;;;;;;4985630;28;20073;-76
2022/05/19 12:05:36;;;;;;;6.45;4.88;;;22.70;99.90;;;;;;4986941;28;20034;-76
2022/05/19 12:08:28;;;;;;;7.95;5.13;;;22.60;99.90;;;;;;4985235;28;20507;-76
2022/05/19 12:11:11;;;;;;;7.18;6.35;;;22.50;99.90;;;;;;4986477;28;20038;-76
2022/05/19 12:13:40;;;;;;;8.80;5.22;;;22.50;99.90;;;;;;5001513;28;20089;-76
2022/05/19 12:16:13;;;;;;;10.07;4.43;;;22.40;99.90;;;;;;4984981;28;20482;-76
2022/05/19 12:18:46;;;;;;;5.38;4.28;;;22.30;99.90;;;;;;4985258;28;20090;-76
2022/05/19 12:21:39;;;;;;;7.68;4.50;;;22.30;99.90;;;;;;4986651;28;20042;-76
2022/05/19 12:24:08;;;;;;;4.85;4.30;;;22.10;99.90;;;;;;4983569;28;20505;-76
2022/05/19 12:26:51;;;;;;;5.67;4.07;;;22.00;99.90;;;;;;4986232;28;20047;-77
2022/05/19 12:29:28;;;;;;;12.80;5.35;;;21.80;99.90;;;;;;4986304;28;20053;-77
2022/05/19 12:31:56;;;;;;;14.07;6.95;;;21.60;99.90;;;;;;4985324;28;20079;-79
2022/05/19 12:34:44;;;;;;;7.65;4.05;;;20.70;99.90;;;;;;4987295;28;20405;-78
2022/05/19 12:37:15;;;;;;;9.07;4.90;;;20.00;99.90;;;;;;4986160;28;20141;-79
2022/05/19 12:39:51;;;;;;;6.13;1.85;;;19.50;99.90;;;;;;4986359;28;20413;-79
2022/05/19 12:42:35;;;;;;;3.88;1.95;;;19.10;99.90;;;;;;4986462;28;20051;-79
2022/05/19 12:45:25;;;;;;;5.75;1.88;;;18.70;99.90;;;;;;4986211;28;20047;-78
2022/05/19 12:48:07;;;;;;;5.03;2.65;;;18.80;99.90;;;;;;4985519;28;20048;-79
2022/05/19 12:50:54;;;;;;;4.55;2.38;;;18.80;99.90;;;;;;4987082;28;20465;-78
2022/05/19 12:53:22;;;;;;;4.35;2.42;;;18.50;99.90;;;;;;4985696;28;20143;-76
2022/05/19 12:55:53;;;;;;;5.60;3.00;;;18.50;99.90;;;;;;4984287;28;20054;-77
2022/05/19 12:58:34;;;;;;;9.73;4.40;;;18.50;99.90;;;;;;4986048;28;20046;-77
2022/05/19 13:01:33;;;;;;;6.75;3.47;;;18.50;99.90;;;;;;4985719;28;20090;-77
2022/05/19 13:04:25;;;;;;;7.75;4.65;;;18.40;99.90;;;;;;4984995;28;20054;-78
2022/05/19 13:07:15;;;;;;;8.88;5.40;;;18.50;99.90;;;;;;4985742;28;20054;-79
2022/05/19 13:09:50;;;;;;;9.95;5.75;;;18.60;99.90;;;;;;4984283;28;20055;-78
2022/05/19 13:12:19;;;;;;;8.68;4.85;;;18.40;99.90;;;;;;4986270;28;20056;-78
2022/05/19 13:14:52;;;;;;;9.07;5.13;;;18.30;99.90;;;;;;4986001;28;20110;-76
2022/05/19 13:17:40;;;;;;;7.35;4.78;;;18.60;99.90;;;;;;4983641;28;20125;-77